Time;durP1;ratioP1;P1;durP2;ratioP2;P2;SDS_P1;SDS_P2;PMS_P1;PMS_P2;Temp;Humidity;BMP_temperature;BMP_pressure;BME280_temperature;BME280_humidity;BME280_pressure;Samples;Min_cycle;Max_cycle;Signal;HPM_P1;HPM_P2
2022/12/05 00:02:23;;;;;;;38.95;18.73;;;;;;;;;;5098275;27;20055;-75
2022/12/05 00:04:50;;;;;;;34.03;18.08;;;;;;;;;;5093963;27;20047;-75
2022/12/05 00:07:19;;;;;;;42.47;19.20;;;;;;;;;;5090198;27;20232;-72
2022/12/05 00:09:46;;;;;;;44.40;19.67;;;;;;;;;;5109339;27;20051;-75
2022/12/05 00:12:14;;;;;;;33.75;17.27;;;;;;;;;;5096786;27;20056;-75
2022/12/05 00:14:41;;;;;;;36.17;17.92;;;;;;;;;;5110068;27;20514;-72
2022/12/05 00:17:08;;;;;;;34.05;17.85;;;;;;;;;;5118235;27;20143;-75
2022/12/05 00:19:35;;;;;;;32.33;17.83;;;;;;;;;;5103315;27;20088;-75
2022/12/05 00:22:02;;;;;;;37.67;16.77;;;;;;;;;;5106385;27;20405;-75
2022/12/05 00:24:31;;;;;;;34.92;17.60;;;;;;;;;;5106611;27;20071;-75
2022/12/05 00:26:58;;;;;;;30.48;16.75;;;;;;;;;;5095468;27;20044;-74
2022/12/05 00:29:25;;;;;;;32.90;16.35;;;;;;;;;;5099273;27;20438;-74
2022/12/05 00:31:53;;;;;;;30.17;16.20;;;;;;;;;;5091118;27;20059;-75
2022/12/05 00:34:20;;;;;;;32.65;16.15;;;;;;;;;;5094452;27;20052;-76
2022/12/05 00:36:47;;;;;;;28.08;15.85;;;;;;;;;;5125949;27;20158;-75
2022/12/05 00:39:15;;;;;;;28.52;15.30;;;;;;;;;;5121279;27;20043;-75
2022/12/05 00:41:44;;;;;;;26.13;15.10;;;;;;;;;;5120193;27;20054;-75
2022/12/05 00:44:12;;;;;;;27.17;15.63;;;;;;;;;;5099310;27;20066;-75
2022/12/05 00:46:39;;;;;;;29.73;14.80;;;;;;;;;;5101917;27;20075;-74
2022/12/05 00:49:07;;;;;;;26.30;14.88;;;;;;;;;;5105239;27;20056;-75
2022/12/05 00:51:35;;;;;;;31.23;15.68;;;;;;;;;;5101237;27;20497;-75
2022/12/05 00:54:04;;;;;;;30.42;16.92;;;;;;;;;;5127929;27;20058;-74
2022/12/05 00:56:32;;;;;;;30.42;15.27;;;;;;;;;;5091919;28;20070;-75
2022/12/05 00:59:01;;;;;;;27.90;15.82;;;;;;;;;;5095895;28;20058;-74
2022/12/05 01:01:31;;;;;;;29.60;16.15;;;;;;;;;;5116217;27;20477;-76
2022/12/05 01:03:59;;;;;;;29.25;16.77;;;;;;;;;;5088962;27;20048;-75
2022/12/05 01:06:26;;;;;;;35.95;17.33;;;;;;;;;;5097569;28;20476;-75
2022/12/05 01:08:54;;;;;;;33.85;17.45;;;;;;;;;;5102443;27;20052;-75
2022/12/05 01:11:22;;;;;;;33.20;18.13;;;;;;;;;;5090477;28;20554;-74
2022/12/05 01:13:49;;;;;;;29.13;16.70;;;;;;;;;;5108171;27;20060;-75
2022/12/05 01:16:18;;;;;;;34.38;18.60;;;;;;;;;;5098945;27;20055;-75
2022/12/05 01:18:46;;;;;;;31.90;17.23;;;;;;;;;;5115506;27;20051;-75
2022/12/05 01:21:13;;;;;;;34.30;17.85;;;;;;;;;;5098327;28;20352;-75
2022/12/05 01:23:41;;;;;;;32.55;18.50;;;;;;;;;;5095968;27;20513;-75
2022/12/05 01:26:09;;;;;;;33.97;17.65;;;;;;;;;;5107009;28;20385;-75
2022/12/05 01:28:37;;;;;;;33.78;17.85;;;;;;;;;;5094683;28;20490;-75
2022/12/05 01:31:06;;;;;;;32.00;17.77;;;;;;;;;;5121621;27;20059;-76
2022/12/05 01:33:35;;;;;;;36.20;17.90;;;;;;;;;;5120601;27;20043;-75
2022/12/05 01:36:03;;;;;;;33.45;16.90;;;;;;;;;;5094703;27;20066;-75
2022/12/05 01:38:30;;;;;;;32.75;17.95;;;;;;;;;;5093365;27;20054;-73
2022/12/05 01:41:02;;;;;;;35.88;18.05;;;;;;;;;;5091817;28;20055;-75
2022/12/05 01:43:29;;;;;;;35.90;18.17;;;;;;;;;;5095805;27;20051;-75
2022/12/05 01:45:57;;;;;;;32.33;17.50;;;;;;;;;;5096254;28;20074;-75
2022/12/05 01:48:26;;;;;;;41.67;17.90;;;;;;;;;;5106639;28;20051;-75
2022/12/05 01:50:55;;;;;;;37.58;17.75;;;;;;;;;;5117729;27;20047;-74
2022/12/05 01:53:23;;;;;;;41.53;16.23;;;;;;;;;;5110776;27;20051;-75
2022/12/05 01:55:51;;;;;;;34.83;17.23;;;;;;;;;;5111419;27;20059;-75
2022/12/05 01:58:18;;;;;;;31.83;15.65;;;;;;;;;;5105296;27;20043;-76
2022/12/05 02:00:46;;;;;;;32.42;15.75;;;;;;;;;;5107065;27;20058;-74
2022/12/05 02:03:15;;;;;;;34.92;15.57;;;;;;;;;;5123387;27;20121;-75
2022/12/05 02:05:43;;;;;;;35.55;15.02;;;;;;;;;;5101547;27;20626;-74
2022/12/05 02:08:12;;;;;;;35.50;15.57;;;;;;;;;;5128250;27;20046;-75
2022/12/05 02:10:40;;;;;;;35.67;14.52;;;;;;;;;;5100322;27;20060;-75
2022/12/05 02:13:15;;;;;;;30.33;12.80;;;;;;;;;;5126737;27;20050;-75
2022/12/05 02:15:44;;;;;;;27.63;12.27;;;;;;;;;;5105907;27;20058;-74
2022/12/05 02:18:21;;;;;;;22.38;11.27;;;;;;;;;;5108881;27;20047;-74
2022/12/05 02:20:57;;;;;;;29.98;12.60;;;;;;;;;;5115360;27;20505;-75
2022/12/05 02:23:33;;;;;;;22.05;10.90;;;;;;;;;;5095928;27;20059;-75
2022/12/05 02:26:24;;;;;;;26.65;11.35;;;;;;;;;;5113191;27;20382;-75
2022/12/05 02:29:02;;;;;;;23.92;9.95;;;;;;;;;;5118400;27;20418;-75
2022/12/05 02:31:34;;;;;;;19.90;9.43;;;;;;;;;;5120120;27;20053;-75
2022/12/05 02:34:05;;;;;;;20.98;8.77;;;;;;;;;;5112654;27;20054;-75
2022/12/05 02:36:36;;;;;;;20.13;9.32;;;;;;;;;;5114179;27;20628;-75
2022/12/05 02:39:07;;;;;;;19.50;8.27;;;;;;;;;;5101749;27;20488;-75
2022/12/05 02:41:37;;;;;;;20.13;8.07;;;;;;;;;;5116196;27;20047;-74
2022/12/05 02:44:06;;;;;;;17.17;8.32;;;;;;;;;;5095965;27;20596;-75
2022/12/05 02:46:36;;;;;;;17.42;8.30;;;;;;;;;;5091905;27;20051;-75
2022/12/05 02:49:06;;;;;;;18.98;8.02;;;;;;;;;;5101107;27;20055;-74
2022/12/05 02:51:36;;;;;;;18.90;7.85;;;;;;;;;;5099707;27;20497;-75
2022/12/05 02:54:05;;;;;;;23.13;8.13;;;;;;;;;;5103025;27;20063;-75
2022/12/05 02:56:33;;;;;;;20.40;8.68;;;;;;;;;;5108972;27;20047;-75
2022/12/05 02:59:01;;;;;;;24.17;7.88;;;;;;;;;;5097103;27;20514;-75
2022/12/05 03:01:30;;;;;;;23.50;8.65;;;;;;;;;;5102515;27;20062;-74
2022/12/05 03:04:00;;;;;;;22.35;7.90;;;;;;;;;;5096441;27;20066;-75
2022/12/05 03:06:28;;;;;;;23.20;8.48;;;;;;;;;;5121198;27;20070;-74
2022/12/05 03:08:58;;;;;;;18.20;8.43;;;;;;;;;;5101492;27;20051;-74
2022/12/05 03:11:26;;;;;;;18.27;7.90;;;;;;;;;;5111570;27;20443;-75
2022/12/05 03:13:56;;;;;;;23.85;7.85;;;;;;;;;;5120764;27;20047;-75
2022/12/05 03:16:25;;;;;;;22.50;8.23;;;;;;;;;;5100836;27;20059;-75
2022/12/05 03:18:56;;;;;;;20.20;7.80;;;;;;;;;;5105593;27;20059;-76
2022/12/05 03:21:30;;;;;;;21.92;7.68;;;;;;;;;;5105406;27;20047;-76
2022/12/05 03:24:01;;;;;;;18.05;6.90;;;;;;;;;;5104978;27;20529;-75
2022/12/05 03:26:44;;;;;;;20.30;7.60;;;;;;;;;;5095269;27;20047;-75
2022/12/05 03:29:19;;;;;;;19.23;7.57;;;;;;;;;;5093541;27;20054;-75
2022/12/05 03:31:49;;;;;;;24.58;7.90;;;;;;;;;;5097118;27;20065;-75
2022/12/05 03:34:19;;;;;;;21.85;7.47;;;;;;;;;;5096705;27;20054;-75
2022/12/05 03:36:49;;;;;;;15.88;7.43;;;;;;;;;;5097252;27;20054;-75
2022/12/05 03:39:19;;;;;;;19.17;7.43;;;;;;;;;;5119601;27;20074;-74
2022/12/05 03:41:53;;;;;;;19.17;6.85;;;;;;;;;;5108785;27;20067;-74
2022/12/05 03:44:24;;;;;;;19.17;7.30;;;;;;;;;;5102755;27;20055;-74
2022/12/05 03:46:54;;;;;;;20.60;6.90;;;;;;;;;;5121103;27;20478;-74
2022/12/05 03:49:23;;;;;;;18.05;7.20;;;;;;;;;;5105408;27;20074;-75
2022/12/05 03:51:54;;;;;;;23.30;6.90;;;;;;;;;;5090370;27;20083;-75
2022/12/05 03:54:24;;;;;;;22.40;6.45;;;;;;;;;;5103852;27;20043;-75
2022/12/05 03:56:53;;;;;;;25.30;8.07;;;;;;;;;;5090470;27;20062;-75
2022/12/05 03:59:23;;;;;;;19.55;6.63;;;;;;;;;;5099220;27;20055;-75
2022/12/05 04:01:51;;;;;;;20.95;6.68;;;;;;;;;;5109787;27;20058;-74
2022/12/05 04:04:21;;;;;;;15.43;6.28;;;;;;;;;;5091200;27;20071;-75
2022/12/05 04:06:50;;;;;;;21.30;7.68;;;;;;;;;;5094905;27;20063;-75
2022/12/05 04:09:21;;;;;;;16.80;6.30;;;;;;;;;;5094871;27;20058;-75
2022/12/05 04:11:51;;;;;;;18.75;6.20;;;;;;;;;;5093214;27;20592;-74
2022/12/05 04:14:20;;;;;;;21.80;8.02;;;;;;;;;;5115479;27;20051;-74
2022/12/05 04:17:04;;;;;;;18.30;6.90;;;;;;;;;;5098897;27;20393;-75
2022/12/05 04:22:16;;;;;;;18.73;7.68;;;;;;;;;;5091947;27;20055;-75
2022/12/05 04:27:28;;;;;;;17.80;7.22;;;;;;;;;;5074246;27;20054;-75
2022/12/05 04:30:00;;;;;;;18.67;7.40;;;;;;;;;;5095189;27;20073;-75
2022/12/05 04:32:31;;;;;;;16.17;7.72;;;;;;;;;;5098649;27;20055;-74
2022/12/05 04:35:02;;;;;;;17.17;7.80;;;;;;;;;;5098619;27;20404;-74
2022/12/05 04:37:32;;;;;;;18.73;7.82;;;;;;;;;;5094788;27;20051;-75
2022/12/05 04:40:03;;;;;;;23.25;8.57;;;;;;;;;;5101466;27;20055;-75
2022/12/05 04:42:33;;;;;;;15.38;8.18;;;;;;;;;;5106920;27;20043;-73
2022/12/05 04:45:03;;;;;;;16.48;8.13;;;;;;;;;;5117988;27;20152;-74
2022/12/05 04:47:31;;;;;;;24.88;8.35;;;;;;;;;;5123131;27;20455;-72
2022/12/05 04:49:59;;;;;;;21.92;9.48;;;;;;;;;;5110586;27;20066;-75
2022/12/05 04:52:27;;;;;;;20.63;8.27;;;;;;;;;;5121876;27;20426;-75
2022/12/05 04:54:58;;;;;;;24.23;8.38;;;;;;;;;;5110845;27;20051;-75
2022/12/05 04:57:28;;;;;;;18.55;8.88;;;;;;;;;;5118024;27;20048;-75
2022/12/05 04:59:55;;;;;;;15.73;8.00;;;;;;;;;;5117577;27;20055;-75
2022/12/05 05:02:26;;;;;;;19.63;8.15;;;;;;;;;;5118249;27;20039;-74
2022/12/05 05:04:54;;;;;;;21.25;7.80;;;;;;;;;;5121658;27;20071;-75
2022/12/05 05:07:22;;;;;;;22.08;8.48;;;;;;;;;;5105455;28;20046;-75
2022/12/05 05:09:49;;;;;;;21.27;8.93;;;;;;;;;;5097261;28;20063;-76
2022/12/05 05:12:16;;;;;;;21.50;8.60;;;;;;;;;;5103332;27;20043;-74
2022/12/05 05:14:45;;;;;;;26.85;8.55;;;;;;;;;;5122212;27;20057;-75
2022/12/05 05:17:12;;;;;;;17.30;8.88;;;;;;;;;;5101729;27;20051;-75
2022/12/05 05:19:39;;;;;;;24.20;8.52;;;;;;;;;;5105343;27;20422;-75
2022/12/05 05:22:06;;;;;;;18.85;8.25;;;;;;;;;;5094165;28;20091;-75
2022/12/05 05:24:34;;;;;;;18.27;8.48;;;;;;;;;;5095922;28;20047;-75
2022/12/05 05:27:01;;;;;;;16.92;8.57;;;;;;;;;;5114207;27;20051;-74
2022/12/05 05:29:28;;;;;;;19.83;8.10;;;;;;;;;;5106931;27;20050;-74
2022/12/05 05:31:57;;;;;;;27.45;10.85;;;;;;;;;;5105190;27;20049;-75
2022/12/05 05:34:25;;;;;;;24.42;8.77;;;;;;;;;;5105972;27;20051;-75
2022/12/05 05:36:53;;;;;;;23.20;7.50;;;;;;;;;;5119544;27;20071;-75
2022/12/05 05:39:20;;;;;;;21.38;8.15;;;;;;;;;;5099673;27;20515;-75
2022/12/05 05:41:47;;;;;;;25.60;8.43;;;;;;;;;;5106764;27;20058;-75
2022/12/05 05:44:14;;;;;;;19.95;8.57;;;;;;;;;;5118562;27;20236;-74
2022/12/05 05:46:41;;;;;;;19.63;8.32;;;;;;;;;;5108778;27;20095;-75
2022/12/05 05:49:10;;;;;;;22.67;8.45;;;;;;;;;;5107923;27;20043;-75
2022/12/05 05:51:38;;;;;;;29.73;8.43;;;;;;;;;;5110799;27;20059;-75
2022/12/05 05:54:05;;;;;;;22.20;8.00;;;;;;;;;;5107701;27;20070;-75
2022/12/05 05:56:32;;;;;;;21.88;8.18;;;;;;;;;;5110880;27;20051;-75
2022/12/05 05:59:01;;;;;;;18.77;8.23;;;;;;;;;;5096838;27;20042;-75
2022/12/05 06:01:28;;;;;;;22.33;8.75;;;;;;;;;;5128143;27;20120;-74
2022/12/05 06:03:56;;;;;;;19.95;7.40;;;;;;;;;;5131183;27;20059;-75
2022/12/05 06:06:24;;;;;;;23.58;8.57;;;;;;;;;;5106509;27;21019;-74
2022/12/05 06:08:53;;;;;;;27.65;9.68;;;;;;;;;;5118736;27;20054;-75
2022/12/05 06:11:21;;;;;;;27.10;16.08;;;;;;;;;;5107522;27;20051;-75
2022/12/05 06:13:49;;;;;;;17.23;8.30;;;;;;;;;;5131814;27;20752;-75
2022/12/05 06:16:17;;;;;;;21.83;8.45;;;;;;;;;;5100292;27;20038;-75
2022/12/05 06:18:44;;;;;;;24.50;9.48;;;;;;;;;;5116759;27;20130;-74
2022/12/05 06:21:12;;;;;;;22.05;7.88;;;;;;;;;;5122099;27;20051;-75
2022/12/05 06:23:40;;;;;;;21.23;8.48;;;;;;;;;;5117706;27;20062;-72
2022/12/05 06:26:11;;;;;;;21.58;9.30;;;;;;;;;;5094029;27;20066;-74
2022/12/05 06:28:38;;;;;;;27.42;9.10;;;;;;;;;;5098926;27;20055;-76
2022/12/05 06:31:08;;;;;;;21.67;8.45;;;;;;;;;;5099745;27;20055;-74
2022/12/05 06:33:35;;;;;;;21.27;8.20;;;;;;;;;;5099126;27;20494;-73
2022/12/05 06:36:03;;;;;;;22.92;8.80;;;;;;;;;;5114209;27;20373;-74
2022/12/05 06:38:30;;;;;;;24.98;8.60;;;;;;;;;;5109295;27;20047;-73
2022/12/05 06:40:59;;;;;;;28.92;8.45;;;;;;;;;;5095418;27;20494;-73
2022/12/05 06:43:26;;;;;;;24.20;8.65;;;;;;;;;;5116541;27;20046;-73
2022/12/05 06:45:54;;;;;;;26.13;8.70;;;;;;;;;;5117594;27;20062;-74
2022/12/05 06:48:21;;;;;;;20.73;8.20;;;;;;;;;;5110615;27;20043;-75
2022/12/05 06:50:49;;;;;;;28.75;8.30;;;;;;;;;;5092608;27;20398;-74
2022/12/05 06:53:16;;;;;;;22.80;7.63;;;;;;;;;;5118322;27;20053;-75
2022/12/05 06:55:43;;;;;;;33.67;8.10;;;;;;;;;;5100781;27;20052;-74
2022/12/05 06:58:12;;;;;;;18.35;7.30;;;;;;;;;;5110278;27;20062;-76
2022/12/05 07:03:24;;;;;;;27.02;7.80;;;;;;;;;;5116576;27;20054;-74
2022/12/05 07:05:51;;;;;;;21.15;7.03;;;;;;;;;;5098821;27;20055;-74
2022/12/05 07:08:18;;;;;;;25.08;7.70;;;;;;;;;;5120463;27;20061;-74
2022/12/05 07:10:51;;;;;;;19.58;7.53;;;;;;;;;;5120765;27;20039;-74
2022/12/05 07:13:19;;;;;;;20.05;7.05;;;;;;;;;;5098628;27;20054;-72
2022/12/05 07:15:47;;;;;;;18.35;7.25;;;;;;;;;;5102098;27;20055;-74
2022/12/05 07:18:15;;;;;;;20.98;7.60;;;;;;;;;;5109250;27;20123;-74
2022/12/05 07:20:42;;;;;;;28.52;7.25;;;;;;;;;;5110922;27;20055;-74
2022/12/05 07:23:09;;;;;;;25.42;6.72;;;;;;;;;;5116119;27;20478;-74
2022/12/05 07:25:39;;;;;;;23.63;7.88;;;;;;;;;;5097235;27;20459;-74
2022/12/05 07:28:07;;;;;;;18.35;6.65;;;;;;;;;;5104312;27;20126;-74
2022/12/05 07:30:35;;;;;;;28.65;7.50;;;;;;;;;;5101523;27;20048;-74
2022/12/05 07:33:02;;;;;;;20.00;6.32;;;;;;;;;;5102019;27;20059;-74
2022/12/05 07:35:30;;;;;;;22.70;7.25;;;;;;;;;;5099752;27;20058;-74
2022/12/05 07:37:57;;;;;;;22.50;7.50;;;;;;;;;;5104524;27;20058;-74
2022/12/05 07:40:25;;;;;;;24.75;6.78;;;;;;;;;;5102111;27;20059;-74
2022/12/05 07:42:53;;;;;;;23.15;8.45;;;;;;;;;;5095381;27;20055;-73
2022/12/05 07:45:20;;;;;;;22.08;8.20;;;;;;;;;;5095856;27;20408;-73
2022/12/05 07:47:49;;;;;;;21.60;6.57;;;;;;;;;;5107506;27;20054;-74
2022/12/05 07:50:16;;;;;;;27.40;6.35;;;;;;;;;;5112129;27;20066;-74
2022/12/05 07:52:43;;;;;;;23.10;6.22;;;;;;;;;;5091446;27;20059;-74
2022/12/05 07:55:10;;;;;;;22.75;6.38;;;;;;;;;;5111925;27;20061;-72
2022/12/05 07:57:38;;;;;;;24.33;6.70;;;;;;;;;;5093687;27;20062;-74
2022/12/05 08:00:06;;;;;;;26.33;7.28;;;;;;;;;;5114182;27;20062;-74
2022/12/05 08:02:33;;;;;;;20.50;6.05;;;;;;;;;;5100233;27;20062;-74
2022/12/05 08:05:02;;;;;;;24.23;6.07;;;;;;;;;;5093887;27;20506;-74
2022/12/05 08:07:29;;;;;;;27.70;7.68;;;;;;;;;;5118108;27;20359;-74
2022/12/05 08:09:56;;;;;;;35.28;6.68;;;;;;;;;;5106555;27;20055;-74
2022/12/05 08:12:23;;;;;;;23.42;6.40;;;;;;;;;;5107918;27;20054;-74
2022/12/05 08:14:51;;;;;;;26.38;6.40;;;;;;;;;;5110719;27;20074;-74
2022/12/05 08:17:18;;;;;;;24.25;6.50;;;;;;;;;;5103971;27;20086;-74
2022/12/05 08:19:45;;;;;;;24.55;6.45;;;;;;;;;;5106149;27;20783;-74
2022/12/05 08:22:14;;;;;;;31.88;6.88;;;;;;;;;;5128211;27;20547;-74
2022/12/05 08:24:41;;;;;;;14.85;5.68;;;;;;;;;;5102747;27;20422;-74
2022/12/05 08:27:08;;;;;;;20.05;6.55;;;;;;;;;;5099118;27;20126;-73
2022/12/05 08:29:35;;;;;;;23.33;6.50;;;;;;;;;;5108871;27;20474;-74
2022/12/05 08:32:03;;;;;;;17.23;5.88;;;;;;;;;;5095812;27;20059;-73
2022/12/05 08:34:30;;;;;;;19.50;6.20;;;;;;;;;;5093674;27;20079;-72
2022/12/05 08:36:58;;;;;;;23.92;5.88;;;;;;;;;;5099810;27;20116;-75
2022/12/05 08:39:27;;;;;;;25.38;5.85;;;;;;;;;;5101234;27;20059;-73
2022/12/05 08:41:54;;;;;;;24.75;5.63;;;;;;;;;;5125766;27;20114;-74
2022/12/05 08:44:22;;;;;;;21.98;6.40;;;;;;;;;;5098808;27;20458;-74
2022/12/05 08:46:50;;;;;;;19.10;5.70;;;;;;;;;;5106675;27;20452;-74
2022/12/05 08:49:18;;;;;;;22.20;6.65;;;;;;;;;;5119955;27;20054;-74
2022/12/05 08:51:45;;;;;;;19.08;5.75;;;;;;;;;;5098334;27;20047;-74
2022/12/05 08:54:12;;;;;;;25.13;5.40;;;;;;;;;;5098528;27;20055;-73
2022/12/05 08:56:41;;;;;;;20.92;6.32;;;;;;;;;;5119683;27;20043;-73
2022/12/05 08:59:08;;;;;;;26.85;6.40;;;;;;;;;;5119849;27;20043;-73
2022/12/05 09:01:37;;;;;;;20.52;5.95;;;;;;;;;;5113114;27;20092;-73
2022/12/05 09:04:05;;;;;;;24.23;6.55;;;;;;;;;;5097682;27;20140;-74
2022/12/05 09:06:34;;;;;;;24.48;5.82;;;;;;;;;;5123004;27;20129;-74
2022/12/05 09:09:03;;;;;;;22.40;5.82;;;;;;;;;;5101764;27;21179;-74
2022/12/05 09:11:32;;;;;;;30.95;5.97;;;;;;;;;;5096913;28;20486;-73
2022/12/05 09:14:01;;;;;;;21.65;5.78;;;;;;;;;;5101063;28;20074;-74
2022/12/05 09:16:29;;;;;;;25.20;6.43;;;;;;;;;;5119366;27;20036;-74
2022/12/05 09:18:57;;;;;;;22.10;6.35;;;;;;;;;;5102384;27;20577;-74
2022/12/05 09:21:25;;;;;;;22.02;5.80;;;;;;;;;;5099320;28;20056;-74
2022/12/05 09:23:53;;;;;;;22.77;6.93;;;;;;;;;;5099806;28;20051;-74
2022/12/05 09:26:22;;;;;;;21.65;6.72;;;;;;;;;;5098875;28;20470;-73
2022/12/05 09:28:50;;;;;;;15.68;6.30;;;;;;;;;;5107233;28;21121;-73
2022/12/05 09:31:19;;;;;;;20.55;6.60;;;;;;;;;;5104968;28;20056;-74
2022/12/05 09:33:47;;;;;;;20.42;6.50;;;;;;;;;;5118237;27;20054;-74
2022/12/05 09:36:15;;;;;;;21.17;6.85;;;;;;;;;;5110122;27;20059;-74
2022/12/05 09:38:43;;;;;;;26.73;6.72;;;;;;;;;;5115085;27;20099;-73
2022/12/05 09:41:17;;;;;;;23.30;6.45;;;;;;;;;;5099453;28;20043;-74
2022/12/05 09:43:47;;;;;;;22.45;6.22;;;;;;;;;;5105020;27;20126;-75
2022/12/05 09:46:21;;;;;;;19.58;6.55;;;;;;;;;;5106290;27;20052;-74
2022/12/05 09:48:48;;;;;;;;;;;;;;;;;;5103166;27;20050;-74
2022/12/05 09:51:16;;;;;;;18.73;6.65;;;;;;;;;;5101770;28;20359;-74
2022/12/05 09:53:44;;;;;;;26.08;7.03;;;;;;;;;;5101470;27;20227;-75
2022/12/05 09:56:15;;;;;;;20.52;7.03;;;;;;;;;;5100279;28;20051;-73
2022/12/05 09:58:43;;;;;;;22.52;6.70;;;;;;;;;;5111319;27;20074;-76
2022/12/05 10:01:23;;;;;;;17.63;6.22;;;;;;;;;;5105048;27;20047;-73
2022/12/05 10:03:59;;;;;;;19.70;6.22;;;;;;;;;;5096793;28;20059;-75
2022/12/05 10:06:30;;;;;;;19.98;6.35;;;;;;;;;;5110581;27;20146;-73
2022/12/05 10:09:14;;;;;;;19.90;6.25;;;;;;;;;;5100396;28;20062;-75
2022/12/05 10:11:45;;;;;;;20.25;6.60;;;;;;;;;;5115256;27;20060;-73
2022/12/05 10:14:18;;;;;;;18.10;6.63;;;;;;;;;;5101476;28;20047;-75
2022/12/05 10:16:48;;;;;;;19.80;6.15;;;;;;;;;;5101934;28;20055;-75
2022/12/05 10:19:18;;;;;;;22.80;6.90;;;;;;;;;;5121036;27;20129;-74
2022/12/05 10:21:51;;;;;;;26.60;6.50;;;;;;;;;;5123380;27;20151;-75
2022/12/05 10:24:21;;;;;;;21.55;6.88;;;;;;;;;;5104345;27;20054;-74
2022/12/05 10:26:50;;;;;;;20.17;6.30;;;;;;;;;;5097801;27;20921;-74
2022/12/05 10:29:22;;;;;;;21.10;6.28;;;;;;;;;;5127727;27;20687;-74
2022/12/05 10:31:50;;;;;;;18.02;6.00;;;;;;;;;;5105019;27;20050;-74
2022/12/05 10:34:19;;;;;;;17.63;5.90;;;;;;;;;;5105388;27;20079;-74
2022/12/05 10:36:54;;;;;;;24.75;6.18;;;;;;;;;;5100247;27;20055;-74
2022/12/05 10:39:21;;;;;;;21.73;6.43;;;;;;;;;;5102054;27;20137;-74
2022/12/05 10:41:49;;;;;;;18.73;5.75;;;;;;;;;;5127691;27;20513;-74
2022/12/05 10:44:16;;;;;;;15.77;5.38;;;;;;;;;;5099133;27;20042;-74
2022/12/05 10:46:43;;;;;;;22.80;6.43;;;;;;;;;;5100987;27;20048;-73
2022/12/05 10:49:11;;;;;;;16.85;6.05;;;;;;;;;;5118465;27;20180;-74
2022/12/05 10:51:39;;;;;;;16.17;5.50;;;;;;;;;;5097853;27;20131;-73
2022/12/05 10:54:14;;;;;;;18.80;5.80;;;;;;;;;;5102006;27;20474;-74
2022/12/05 10:56:43;;;;;;;13.95;6.10;;;;;;;;;;5101285;27;20549;-74
2022/12/05 10:59:11;;;;;;;23.98;6.95;;;;;;;;;;5103631;27;20131;-74
2022/12/05 11:01:43;;;;;;;16.02;5.88;;;;;;;;;;5101439;27;20059;-73
2022/12/05 11:04:19;;;;;;;21.38;5.80;;;;;;;;;;5127141;27;20126;-74
2022/12/05 11:06:50;;;;;;;26.17;7.57;;;;;;;;;;5100177;27;20048;-75
2022/12/05 11:09:20;;;;;;;17.35;4.93;;;;;;;;;;5115198;27;20052;-75
2022/12/05 11:11:58;;;;;;;16.17;5.72;;;;;;;;;;5117074;27;20116;-74
2022/12/05 11:14:26;;;;;;;23.17;5.60;;;;;;;;;;5101237;27;20051;-74
2022/12/05 11:16:54;;;;;;;20.60;5.20;;;;;;;;;;5101315;27;20055;-74
2022/12/05 11:19:26;;;;;;;15.70;5.22;;;;;;;;;;5101519;27;20047;-74
2022/12/05 11:21:53;;;;;;;19.73;5.82;;;;;;;;;;5112311;27;20055;-75
2022/12/05 11:24:23;;;;;;;18.05;6.78;;;;;;;;;;5102313;27;20059;-75
2022/12/05 11:26:50;;;;;;;16.75;6.63;;;;;;;;;;5096207;27;20050;-74
2022/12/05 11:29:31;;;;;;;20.15;6.90;;;;;;;;;;5116924;27;20046;-74
2022/12/05 11:31:59;;;;;;;16.30;6.15;;;;;;;;;;5100972;27;20142;-72
2022/12/05 11:34:29;;;;;;;31.25;6.93;;;;;;;;;;5121430;27;20051;-75
2022/12/05 11:36:58;;;;;;;17.60;5.70;;;;;;;;;;5116480;27;20047;-74
2022/12/05 11:39:26;;;;;;;19.92;6.13;;;;;;;;;;5101371;27;20139;-74
2022/12/05 11:42:15;;;;;;;24.02;6.18;;;;;;;;;;5118150;27;20040;-74
2022/12/05 11:44:51;;;;;;;14.88;5.40;;;;;;;;;;5075979;27;20067;-74
2022/12/05 11:47:22;;;;;;;14.57;4.60;;;;;;;;;;5101394;27;20054;-74
2022/12/05 11:50:14;;;;;;;19.48;4.65;;;;;;;;;;5115895;27;20058;-74
2022/12/05 11:52:49;;;;;;;14.57;4.75;;;;;;;;;;5114501;27;20051;-74
2022/12/05 11:55:20;;;;;;;22.58;5.45;;;;;;;;;;5105738;27;20055;-73
2022/12/05 11:57:56;;;;;;;22.98;5.10;;;;;;;;;;5125411;27;20043;-74
2022/12/05 12:00:25;;;;;;;16.08;5.72;;;;;;;;;;5099940;27;20058;-72
2022/12/05 12:03:03;;;;;;;17.38;4.85;;;;;;;;;;5096789;27;20055;-74
2022/12/05 12:05:33;;;;;;;23.00;5.40;;;;;;;;;;5092915;27;20409;-74
2022/12/05 12:08:04;;;;;;;20.23;5.55;;;;;;;;;;5101629;27;20043;-74
2022/12/05 12:10:38;;;;;;;19.02;5.90;;;;;;;;;;5093699;27;20437;-74
2022/12/05 12:13:13;;;;;;;22.02;5.38;;;;;;;;;;5103032;27;20058;-74
2022/12/05 12:15:47;;;;;;;13.88;4.72;;;;;;;;;;5097838;27;20063;-74
2022/12/05 12:18:22;;;;;;;19.60;5.03;;;;;;;;;;5103856;27;20464;-75
2022/12/05 12:20:55;;;;;;;19.02;5.10;;;;;;;;;;5094766;27;20056;-74
2022/12/05 12:23:28;;;;;;;21.75;5.45;;;;;;;;;;5112621;27;20051;-74
2022/12/05 12:26:04;;;;;;;18.02;5.28;;;;;;;;;;5097217;27;20047;-74
2022/12/05 12:28:38;;;;;;;17.63;4.72;;;;;;;;;;5109927;27;20059;-74
2022/12/05 12:31:26;;;;;;;19.45;5.75;;;;;;;;;;5117105;27;20509;-75
2022/12/05 12:33:58;;;;;;;14.55;4.63;;;;;;;;;;5115148;27;20059;-74
2022/12/05 12:36:27;;;;;;;16.70;6.00;;;;;;;;;;5120757;27;20046;-75
2022/12/05 12:39:08;;;;;;;17.02;5.43;;;;;;;;;;5095198;27;20531;-74
2022/12/05 12:41:54;;;;;;;18.15;5.13;;;;;;;;;;5100300;27;20043;-74
2022/12/05 12:44:39;;;;;;;18.70;6.13;;;;;;;;;;5099201;27;20047;-74
2022/12/05 12:47:10;;;;;;;18.52;6.03;;;;;;;;;;5108123;27;20400;-73
2022/12/05 12:49:43;;;;;;;17.00;5.72;;;;;;;;;;5109328;27;20097;-74
2022/12/05 12:52:13;;;;;;;20.13;5.88;;;;;;;;;;5106938;27;20051;-74
2022/12/05 12:54:52;;;;;;;17.63;6.10;;;;;;;;;;5098046;27;20046;-74
2022/12/05 12:57:26;;;;;;;19.88;7.20;;;;;;;;;;5101950;27;20058;-74
2022/12/05 12:59:58;;;;;;;18.98;5.28;;;;;;;;;;5131540;27;20050;-74
2022/12/05 13:02:27;;;;;;;15.82;5.80;;;;;;;;;;5092592;27;20168;-74
2022/12/05 13:04:57;;;;;;;21.38;7.13;;;;;;;;;;5109630;27;20058;-74
2022/12/05 13:07:28;;;;;;;20.80;5.82;;;;;;;;;;5104580;27;20123;-74
2022/12/05 13:09:57;;;;;;;21.63;5.63;;;;;;;;;;5101418;27;20085;-74
2022/12/05 13:12:29;;;;;;;15.80;4.97;;;;;;;;;;5109628;27;20446;-74
2022/12/05 13:14:58;;;;;;;14.45;5.72;;;;;;;;;;5113419;28;20351;-74
2022/12/05 13:17:26;;;;;;;18.90;5.40;;;;;;;;;;5104296;27;20130;-74
2022/12/05 13:19:55;;;;;;;19.50;5.18;;;;;;;;;;5125980;27;20098;-75
2022/12/05 13:22:23;;;;;;;23.83;9.48;;;;;;;;;;5124408;27;20564;-76
2022/12/05 13:24:51;;;;;;;18.67;8.90;;;;;;;;;;5099972;28;20055;-75
2022/12/05 13:27:19;;;;;;;14.55;6.80;;;;;;;;;;5110285;27;20374;-71
2022/12/05 13:29:51;;;;;;;19.65;6.20;;;;;;;;;;5117100;27;20457;-73
2022/12/05 13:32:27;;;;;;;20.75;5.45;;;;;;;;;;5111969;27;20047;-73
2022/12/05 13:34:55;;;;;;;16.65;5.30;;;;;;;;;;5107477;27;20621;-73
2022/12/05 13:43:05;;;;;;;16.25;5.28;;;;;;;;;;5117123;27;20131;-74
2022/12/05 13:45:34;;;;;;;16.58;5.68;;;;;;;;;;5119701;27;20043;-73
2022/12/05 13:48:07;;;;;;;19.40;5.20;;;;;;;;;;5109670;27;20050;-74
2022/12/05 13:50:36;;;;;;;15.60;4.53;;;;;;;;;;5108252;27;20047;-73
2022/12/05 13:53:05;;;;;;;18.55;5.45;;;;;;;;;;5137984;27;20062;-73
2022/12/05 13:55:34;;;;;;;18.90;5.63;;;;;;;;;;5116424;27;20048;-73
2022/12/05 13:58:01;;;;;;;20.20;4.68;;;;;;;;;;5114760;27;20103;-73
2022/12/05 14:00:36;;;;;;;15.25;5.05;;;;;;;;;;5119008;27;20051;-73
2022/12/05 14:03:15;;;;;;;18.35;4.80;;;;;;;;;;5128396;27;20131;-73
2022/12/05 14:05:53;;;;;;;15.70;5.13;;;;;;;;;;5125768;27;20055;-73
2022/12/05 14:08:47;;;;;;;19.77;5.45;;;;;;;;;;5121982;27;20509;-72
2022/12/05 14:11:14;;;;;;;;;;;;;;;;;;5117663;27;20058;-73
2022/12/05 14:13:44;;;;;;;19.75;4.65;;;;;;;;;;5129742;27;20413;-74
2022/12/05 14:16:40;;;;;;;20.45;5.40;;;;;;;;;;5129448;27;20096;-72
2022/12/05 14:19:17;;;;;;;18.60;4.97;;;;;;;;;;5109793;27;20050;-73
2022/12/05 14:21:48;;;;;;;14.68;5.22;;;;;;;;;;5134715;27;20469;-74
2022/12/05 14:24:20;;;;;;;18.88;5.03;;;;;;;;;;5127525;27;20046;-72
2022/12/05 14:26:54;;;;;;;15.98;5.00;;;;;;;;;;5095228;27;20058;-74
2022/12/05 14:29:31;;;;;;;13.93;5.03;;;;;;;;;;5117362;27;20043;-74
2022/12/05 14:32:04;;;;;;;13.80;4.97;;;;;;;;;;5103836;27;20542;-73
2022/12/05 14:34:33;;;;;;;15.38;5.00;;;;;;;;;;5118638;27;20047;-73
2022/12/05 14:37:02;;;;;;;20.02;5.05;;;;;;;;;;5099090;27;20062;-74
2022/12/05 14:39:34;;;;;;;15.02;5.30;;;;;;;;;;5121825;27;20039;-74
2022/12/05 14:42:03;;;;;;;19.60;6.68;;;;;;;;;;5104052;27;20047;-73
2022/12/05 14:44:32;;;;;;;21.38;6.80;;;;;;;;;;5126490;27;20043;-74
2022/12/05 14:47:02;;;;;;;16.10;5.72;;;;;;;;;;5097701;27;20176;-74
2022/12/05 14:49:51;;;;;;;14.27;5.57;;;;;;;;;;5125144;27;20401;-73
2022/12/05 14:52:20;;;;;;;20.80;5.68;;;;;;;;;;5117146;27;20079;-73
2022/12/05 14:54:47;;;;;;;18.95;5.10;;;;;;;;;;5115102;27;20108;-74
2022/12/05 14:57:16;;;;;;;19.92;5.25;;;;;;;;;;5121935;27;20051;-74
2022/12/05 14:59:46;;;;;;;18.00;5.70;;;;;;;;;;5132393;27;20059;-74